Time;durP1;ratioP1;P1;durP2;ratioP2;P2;SDS_P1;SDS_P2;PMS_P1;PMS_P2;Temp;Humidity;BMP_temperature;BMP_pressure;BME280_temperature;BME280_humidity;BME280_pressure;Samples;Min_cycle;Max_cycle;Signal;HPM_P1;HPM_P2
2022/09/28 00:01:18;;;;;;;10.70;3.67;;;;;;;;;;4317840;33;20544;-79
2022/09/28 00:03:47;;;;;;;12.77;6.30;;;;;;;;;;4317789;33;20549;-79
2022/09/28 00:06:17;;;;;;;16.08;9.55;;;;;;;;;;4318212;33;20561;-79
2022/09/28 00:08:45;;;;;;;33.13;9.90;;;;;;;;;;4317609;33;20293;-79
2022/09/28 00:11:14;;;;;;;130.93;9.00;;;;;;;;;;4318072;33;20711;-79
2022/09/28 00:13:42;;;;;;;124.33;9.20;;;;;;;;;;4317534;33;20353;-79
2022/09/28 00:16:14;;;;;;;10.37;6.63;;;;;;;;;;4317598;33;20593;-79
2022/09/28 00:18:41;;;;;;;12.57;8.93;;;;;;;;;;4317425;33;20665;-79
2022/09/28 00:21:11;;;;;;;29.37;9.17;;;;;;;;;;4317422;33;20621;-79
2022/09/28 00:24:11;;;;;;;13.20;9.40;;;;;;;;;;4317446;33;20635;-79
2022/09/28 00:26:27;;;;;;;18.75;12.68;;;;;;;;;;4317299;33;20223;-79
2022/09/28 00:28:56;;;;;;;17.02;11.02;;;;;;;;;;4317296;33;20713;-79
2022/09/28 00:31:25;;;;;;;17.30;11.82;;;;;;;;;;4317322;33;20514;-79
2022/09/28 00:33:54;;;;;;;14.30;11.07;;;;;;;;;;4317254;33;20697;-79
2022/09/28 00:36:21;;;;;;;13.40;9.40;;;;;;;;;;4317227;33;20575;-79
2022/09/28 00:38:51;;;;;;;15.30;10.13;;;;;;;;;;4317211;33;20576;-80
2022/09/28 00:41:18;;;;;;;13.02;9.13;;;;;;;;;;4317176;33;20200;-79
2022/09/28 00:43:46;;;;;;;10.60;8.00;;;;;;;;;;4317239;33;20569;-79
2022/09/28 00:46:18;;;;;;;9.50;7.97;;;;;;;;;;4317343;33;20250;-79
2022/09/28 00:48:53;;;;;;;14.00;8.70;;;;;;;;;;4317326;33;20645;-79
2022/09/28 00:51:21;;;;;;;11.45;8.20;;;;;;;;;;4317635;33;20639;-79
2022/09/28 00:53:50;;;;;;;13.70;8.57;;;;;;;;;;4317159;33;20558;-79
2022/09/28 00:56:21;;;;;;;17.98;8.57;;;;;;;;;;4317233;33;20557;-79
2022/09/28 00:58:52;;;;;;;12.90;8.30;;;;;;;;;;4317202;33;20660;-79
2022/09/28 01:01:19;;;;;;;14.00;7.78;;;;;;;;;;4317905;33;20526;-78
2022/09/28 01:03:49;;;;;;;10.98;6.87;;;;;;;;;;4320259;33;20549;-79
2022/09/28 01:06:20;;;;;;;16.25;6.47;;;;;;;;;;4320268;33;20553;-79
2022/09/28 01:08:50;;;;;;;12.88;6.00;;;;;;;;;;4320356;33;20656;-85
2022/09/28 01:11:19;;;;;;;10.52;7.75;;;;;;;;;;4320185;33;20544;-80
2022/09/28 01:13:48;;;;;;;6.55;5.37;;;;;;;;;;4320171;33;20652;-79
2022/09/28 01:16:24;;;;;;;13.55;4.85;;;;;;;;;;4320150;33;20599;-84
2022/09/28 01:19:07;;;;;;;14.75;4.55;;;;;;;;;;4320190;33;20579;-79
2022/09/28 01:21:46;;;;;;;6.47;3.17;;;;;;;;;;4319976;33;20549;-81
2022/09/28 01:24:31;;;;;;;12.20;3.28;;;;;;;;;;4320468;33;20196;-88
2022/09/28 01:27:07;;;;;;;8.73;3.62;;;;;;;;;;4320070;33;20562;-87
2022/09/28 01:29:44;;;;;;;6.90;3.63;;;;;;;;;;4320084;33;20601;-84
2022/09/28 01:32:18;;;;;;;6.97;3.77;;;;;;;;;;4320429;33;20656;-81
2022/09/28 01:34:54;;;;;;;6.57;2.97;;;;;;;;;;4320615;33;20599;-88
2022/09/28 01:37:31;;;;;;;11.37;2.87;;;;;;;;;;4319875;33;20636;-81
2022/09/28 01:40:02;;;;;;;6.15;3.50;;;;;;;;;;4319734;33;20510;-84
2022/09/28 01:42:35;;;;;;;8.65;2.72;;;;;;;;;;4319949;33;20215;-89
2022/09/28 01:45:07;;;;;;;8.25;1.92;;;;;;;;;;4319951;33;20560;-89
2022/09/28 01:47:39;;;;;;;6.43;2.58;;;;;;;;;;4319773;33;20299;-79
2022/09/28 01:50:11;;;;;;;10.40;4.22;;;;;;;;;;4319951;33;20510;-79
2022/09/28 01:52:44;;;;;;;4.55;2.95;;;;;;;;;;4319766;33;20300;-80
2022/09/28 01:55:17;;;;;;;5.20;2.40;;;;;;;;;;4319699;33;20282;-79
2022/09/28 01:57:50;;;;;;;5.35;2.42;;;;;;;;;;4319878;33;20573;-80
2022/09/28 02:00:20;;;;;;;9.05;2.75;;;;;;;;;;4319321;33;20576;-79
2022/09/28 02:02:54;;;;;;;5.40;2.28;;;;;;;;;;4319839;33;20542;-80
2022/09/28 02:05:28;;;;;;;8.43;2.78;;;;;;;;;;4320316;33;20674;-80
2022/09/28 02:08:00;;;;;;;10.20;3.20;;;;;;;;;;4319535;33;20223;-79
2022/09/28 02:10:32;;;;;;;4.77;2.83;;;;;;;;;;4319967;33;20515;-79
2022/09/28 02:13:10;;;;;;;5.80;4.10;;;;;;;;;;4319472;33;20637;-79
2022/09/28 02:15:46;;;;;;;6.60;3.93;;;;;;;;;;4319682;33;20627;-79
2022/09/28 02:18:16;;;;;;;9.17;3.50;;;;;;;;;;4325571;33;20600;-79
2022/09/28 02:20:49;;;;;;;14.47;5.23;;;;;;;;;;4326717;33;20299;-79
2022/09/28 02:23:19;;;;;;;7.20;3.97;;;;;;;;;;4326424;33;20192;-79
2022/09/28 02:25:51;;;;;;;10.90;5.57;;;;;;;;;;4324947;33;20561;-79
2022/09/28 02:28:20;;;;;;;14.03;7.50;;;;;;;;;;4327123;33;20196;-79
2022/09/28 02:30:47;;;;;;;16.03;8.37;;;;;;;;;;4327539;33;20215;-79
2022/09/28 02:33:20;;;;;;;11.27;8.20;;;;;;;;;;4325723;33;20549;-79
2022/09/28 02:35:47;;;;;;;9.07;6.67;;;;;;;;;;4324795;33;20610;-79
2022/09/28 02:38:15;;;;;;;19.53;7.37;;;;;;;;;;4320262;33;20549;-79
2022/09/28 02:40:48;;;;;;;10.90;6.10;;;;;;;;;;4318659;33;20616;-79
2022/09/28 02:43:23;;;;;;;15.70;4.63;;;;;;;;;;4319533;33;20565;-79
2022/09/28 02:46:00;;;;;;;55.97;4.10;;;;;;;;;;4318835;33;20600;-80
2022/09/28 02:48:45;;;;;;;8.13;4.18;;;;;;;;;;4319071;33;20553;-78
2022/09/28 02:51:21;;;;;;;12.70;4.18;;;;;;;;;;4319330;33;20576;-78
2022/09/28 02:54:16;;;;;;;6.07;3.50;;;;;;;;;;4319062;33;20612;-78
2022/09/28 02:57:20;;;;;;;5.05;2.67;;;;;;;;;;4319034;33;20632;-80
2022/09/28 02:59:57;;;;;;;5.63;1.90;;;;;;;;;;4318176;33;20333;-81
2022/09/28 03:02:30;;;;;;;4.57;3.03;;;;;;;;;;4318752;33;20544;-90
2022/09/28 03:05:09;;;;;;;4.17;2.87;;;;;;;;;;4318560;33;20660;-79
2022/09/28 03:07:40;;;;;;;2.53;2.17;;;;;;;;;;4318675;33;20537;-80
2022/09/28 03:10:14;;;;;;;5.62;4.35;;;;;;;;;;4318635;33;20626;-80
2022/09/28 03:12:44;;;;;;;21.10;8.63;;;;;;;;;;4318915;33;20544;-87
2022/09/28 03:15:20;;;;;;;15.38;8.15;;;;;;;;;;4318552;33;20565;-92
2022/09/28 03:17:48;;;;;;;15.02;7.10;;;;;;;;;;4319262;33;20251;-92
2022/09/28 03:20:15;;;;;;;9.77;5.65;;;;;;;;;;4318523;33;20499;-79
2022/09/28 03:22:45;;;;;;;16.57;8.37;;;;;;;;;;4318614;33;20541;-86
2022/09/28 03:25:14;;;;;;;12.83;6.90;;;;;;;;;;4318179;33;20282;-79
2022/09/28 03:27:42;;;;;;;14.40;5.93;;;;;;;;;;4318136;33;20601;-80
2022/09/28 03:30:12;;;;;;;14.98;8.18;;;;;;;;;;4318076;33;20250;-83
2022/09/28 03:32:40;;;;;;;9.60;6.60;;;;;;;;;;4318257;33;20618;-79
2022/09/28 03:35:09;;;;;;;13.53;5.50;;;;;;;;;;4318266;33;20291;-81
2022/09/28 03:41:01;;;;;;;11.37;5.13;;;;;;;;;;4269869;33;20235;-80
2022/09/28 03:43:31;;;;;;;8.07;4.57;;;;;;;;;;4320026;33;20639;-91
2022/09/28 03:46:01;;;;;;;7.03;4.60;;;;;;;;;;4318200;33;20594;-80
2022/09/28 03:48:30;;;;;;;11.23;4.97;;;;;;;;;;4318231;33;20661;-91
2022/09/28 03:50:59;;;;;;;11.43;5.37;;;;;;;;;;4318046;33;20204;-88
2022/09/28 03:53:28;;;;;;;51.83;7.77;;;;;;;;;;4317951;33;20666;-79
2022/09/28 03:55:55;;;;;;;12.60;7.07;;;;;;;;;;4317803;33;20309;-78
2022/09/28 03:58:23;;;;;;;12.23;9.05;;;;;;;;;;4317601;33;20642;-80
2022/09/28 04:00:51;;;;;;;14.77;9.23;;;;;;;;;;4317524;33;20630;-78
2022/09/28 04:03:20;;;;;;;14.83;7.70;;;;;;;;;;4317571;33;20576;-78
2022/09/28 04:05:52;;;;;;;18.40;9.07;;;;;;;;;;4317580;33;20661;-78
2022/09/28 04:08:20;;;;;;;17.97;8.10;;;;;;;;;;4317410;33;20253;-80
2022/09/28 04:10:48;;;;;;;11.50;7.13;;;;;;;;;;4317471;33;20590;-79
2022/09/28 04:13:16;;;;;;;37.83;6.77;;;;;;;;;;4317601;33;20330;-82
2022/09/28 04:15:43;;;;;;;37.27;6.27;;;;;;;;;;4317789;33;20625;-82
2022/09/28 04:18:12;;;;;;;32.67;5.17;;;;;;;;;;4317785;33;20349;-82
2022/09/28 04:20:44;;;;;;;10.90;4.93;;;;;;;;;;4317786;33;20590;-82
2022/09/28 04:23:11;;;;;;;21.07;5.90;;;;;;;;;;4318307;33;20564;-82
2022/09/28 04:25:39;;;;;;;18.83;5.27;;;;;;;;;;4317643;33;20621;-81
2022/09/28 04:30:51;;;;;;;13.47;4.47;;;;;;;;;;4317435;33;20577;-78
2022/09/28 04:33:19;;;;;;;7.87;4.10;;;;;;;;;;4317711;33;20215;-81
2022/09/28 04:35:50;;;;;;;4.70;3.63;;;;;;;;;;4316510;33;20282;-78
2022/09/28 04:38:17;;;;;;;14.50;5.73;;;;;;;;;;4317457;33;20696;-77
2022/09/28 04:40:45;;;;;;;19.07;4.00;;;;;;;;;;4317518;33;20680;-89
2022/09/28 04:43:12;;;;;;;5.33;4.07;;;;;;;;;;4317542;33;20700;-85
2022/09/28 04:45:40;;;;;;;5.57;3.97;;;;;;;;;;4317080;33;20318;-87
2022/09/28 04:48:07;;;;;;;9.93;5.50;;;;;;;;;;4317262;33;20613;-83
2022/09/28 04:50:35;;;;;;;14.97;5.87;;;;;;;;;;4316910;33;20632;-81
2022/09/28 04:53:04;;;;;;;16.10;7.63;;;;;;;;;;4316784;33;20611;-81
2022/09/28 04:55:34;;;;;;;9.57;6.50;;;;;;;;;;4317009;33;20547;-81
2022/09/28 04:58:03;;;;;;;18.17;9.67;;;;;;;;;;4316862;33;20593;-81
2022/09/28 05:00:34;;;;;;;14.10;9.57;;;;;;;;;;4317000;33;20216;-81
2022/09/28 05:03:01;;;;;;;12.67;8.57;;;;;;;;;;4316836;33;20518;-79
2022/09/28 05:05:29;;;;;;;14.70;7.32;;;;;;;;;;4316287;33;20519;-76
2022/09/28 05:07:59;;;;;;;11.47;7.47;;;;;;;;;;4316453;33;20561;-77
2022/09/28 05:10:28;;;;;;;25.08;11.00;;;;;;;;;;4317684;33;20353;-76
2022/09/28 05:12:56;;;;;;;19.13;11.33;;;;;;;;;;4316529;33;20617;-77
2022/09/28 05:15:24;;;;;;;19.10;9.07;;;;;;;;;;4316719;33;20582;-76
2022/09/28 05:17:53;;;;;;;33.20;8.53;;;;;;;;;;4316353;33;20274;-77
2022/09/28 05:20:21;;;;;;;11.93;7.73;;;;;;;;;;4316506;33;20564;-77
2022/09/28 05:22:49;;;;;;;6.47;4.90;;;;;;;;;;4316710;33;20590;-82
2022/09/28 05:25:16;;;;;;;28.50;5.57;;;;;;;;;;4316377;33;20769;-81
2022/09/28 05:27:46;;;;;;;10.27;5.80;;;;;;;;;;4316529;33;20574;-81
2022/09/28 05:30:13;;;;;;;9.07;5.40;;;;;;;;;;4316439;33;20577;-80
2022/09/28 05:32:43;;;;;;;8.33;4.90;;;;;;;;;;4316955;33;20607;-80
2022/09/28 05:35:11;;;;;;;8.20;5.20;;;;;;;;;;4316282;33;20530;-80
2022/09/28 05:37:39;;;;;;;17.20;6.43;;;;;;;;;;4315968;33;20606;-81
2022/09/28 05:40:08;;;;;;;10.13;6.37;;;;;;;;;;4316282;33;20573;-81
2022/09/28 05:42:35;;;;;;;30.77;7.23;;;;;;;;;;4316250;33;20636;-80
2022/09/28 05:45:05;;;;;;;18.63;7.40;;;;;;;;;;4315704;33;20663;-80
2022/09/28 05:47:37;;;;;;;10.77;7.10;;;;;;;;;;4317305;33;20604;-80
2022/09/28 05:50:06;;;;;;;15.37;7.47;;;;;;;;;;4318949;33;20661;-79
2022/09/28 05:52:33;;;;;;;15.97;8.27;;;;;;;;;;4319568;33;20536;-80
2022/09/28 05:55:01;;;;;;;12.53;8.90;;;;;;;;;;4319483;33;20661;-80
2022/09/28 05:57:30;;;;;;;8.90;6.63;;;;;;;;;;4319476;33;20554;-80
2022/09/28 05:59:57;;;;;;;9.17;7.00;;;;;;;;;;4318982;33;20298;-80
2022/09/28 06:02:26;;;;;;;11.97;6.50;;;;;;;;;;4319087;33;20537;-79
2022/09/28 06:04:54;;;;;;;11.37;6.73;;;;;;;;;;4318766;33;20257;-80
2022/09/28 06:07:22;;;;;;;10.33;8.37;;;;;;;;;;4319075;33;20549;-80
2022/09/28 06:09:50;;;;;;;15.27;8.27;;;;;;;;;;4318969;33;20659;-79
2022/09/28 06:12:18;;;;;;;12.27;7.83;;;;;;;;;;4319009;33;20313;-79
2022/09/28 06:14:47;;;;;;;21.37;9.67;;;;;;;;;;4319031;33;20526;-79
2022/09/28 06:17:15;;;;;;;13.00;9.13;;;;;;;;;;4318883;33;20519;-79
2022/09/28 06:19:44;;;;;;;12.90;9.47;;;;;;;;;;4318507;33;20674;-80
2022/09/28 06:22:12;;;;;;;17.07;10.07;;;;;;;;;;4319078;33;20597;-79
2022/09/28 06:24:40;;;;;;;19.23;10.10;;;;;;;;;;4318470;33;20576;-79
2022/09/28 06:27:07;;;;;;;18.80;9.57;;;;;;;;;;4318734;33;20673;-79
2022/09/28 06:29:34;;;;;;;14.77;9.68;;;;;;;;;;4318206;33;20565;-79
2022/09/28 06:32:02;;;;;;;12.17;7.90;;;;;;;;;;4318773;33;20628;-79
2022/09/28 06:34:30;;;;;;;10.93;6.87;;;;;;;;;;4318612;33;20660;-79
2022/09/28 06:36:59;;;;;;;13.17;7.23;;;;;;;;;;4318916;33;20676;-80
2022/09/28 06:39:26;;;;;;;12.20;7.40;;;;;;;;;;4318810;33;20543;-79
2022/09/28 06:41:53;;;;;;;14.97;7.17;;;;;;;;;;4318692;33;20576;-79
2022/09/28 06:44:24;;;;;;;12.60;7.43;;;;;;;;;;4318465;33;20561;-80
2022/09/28 06:46:52;;;;;;;13.97;7.63;;;;;;;;;;4318127;33;20536;-79
2022/09/28 06:49:20;;;;;;;12.03;6.87;;;;;;;;;;4304759;33;20675;-80
2022/09/28 06:51:48;;;;;;;17.53;7.57;;;;;;;;;;4318459;33;20607;-79
2022/09/28 06:54:17;;;;;;;10.33;6.90;;;;;;;;;;4318365;33;20669;-78
2022/09/28 06:56:44;;;;;;;17.00;7.47;;;;;;;;;;4318524;33;20613;-78
2022/09/28 06:59:12;;;;;;;16.37;8.50;;;;;;;;;;4317427;33;20298;-79
2022/09/28 07:01:39;;;;;;;25.87;11.97;;;;;;;;;;4318187;33;20520;-80
2022/09/28 07:04:07;;;;;;;25.50;11.57;;;;;;;;;;4318126;33;20577;-79
2022/09/28 07:06:34;;;;;;;19.70;11.80;;;;;;;;;;4317996;33;20545;-79
2022/09/28 07:09:05;;;;;;;27.13;14.17;;;;;;;;;;4317822;33;20584;-79
2022/09/28 07:11:39;;;;;;;20.50;14.18;;;;;;;;;;4318185;33;20600;-79
2022/09/28 07:14:07;;;;;;;27.83;13.70;;;;;;;;;;4318057;33;20647;-80
2022/09/28 07:16:34;;;;;;;24.00;11.00;;;;;;;;;;4318004;33;20529;-80
2022/09/28 07:19:02;;;;;;;36.85;13.88;;;;;;;;;;4318115;33;20588;-80
2022/09/28 07:21:30;;;;;;;43.60;22.73;;;;;;;;;;4318163;33;20498;-80
2022/09/28 07:23:58;;;;;;;41.47;24.92;;;;;;;;;;4318260;33;20743;-79
2022/09/28 07:26:29;;;;;;;40.08;24.02;;;;;;;;;;4318809;33;20271;-82
2022/09/28 07:28:58;;;;;;;44.60;25.02;;;;;;;;;;4318197;33;20571;-80
2022/09/28 07:31:28;;;;;;;38.00;22.57;;;;;;;;;;4317849;33;20603;-80
2022/09/28 07:33:57;;;;;;;33.28;19.48;;;;;;;;;;4318943;33;20650;-80
2022/09/28 07:36:24;;;;;;;31.87;19.73;;;;;;;;;;4317863;33;20510;-80
2022/09/28 07:38:52;;;;;;;37.78;20.15;;;;;;;;;;4317978;33;20657;-82
2022/09/28 07:41:31;;;;;;;34.85;18.48;;;;;;;;;;4317544;33;20302;-79
2022/09/28 07:44:04;;;;;;;28.70;19.23;;;;;;;;;;4317835;33;20300;-78
2022/09/28 07:46:33;;;;;;;30.93;19.40;;;;;;;;;;4317474;33;20691;-79
2022/09/28 07:49:04;;;;;;;28.23;18.23;;;;;;;;;;4318751;33;20299;-79
2022/09/28 07:51:32;;;;;;;30.48;18.87;;;;;;;;;;4317742;33;20613;-79
2022/09/28 07:53:59;;;;;;;34.92;18.85;;;;;;;;;;4317802;33;20665;-79
2022/09/28 07:56:27;;;;;;;22.42;15.07;;;;;;;;;;4320195;33;20282;-79
2022/09/28 07:58:55;;;;;;;33.00;16.17;;;;;;;;;;4317501;33;20614;-79
2022/09/28 08:01:24;;;;;;;23.10;15.02;;;;;;;;;;4317785;33;20607;-80
2022/09/28 08:03:55;;;;;;;28.08;13.90;;;;;;;;;;4304153;33;20743;-80
2022/09/28 08:06:22;;;;;;;16.25;10.95;;;;;;;;;;4318548;33;20602;-80
2022/09/28 08:08:51;;;;;;;20.77;13.80;;;;;;;;;;4317757;33;20674;-80
2022/09/28 08:11:19;;;;;;;22.90;14.45;;;;;;;;;;4317495;33;20528;-79
2022/09/28 08:13:47;;;;;;;21.87;12.75;;;;;;;;;;4317866;33;20572;-79
2022/09/28 08:16:14;;;;;;;20.80;10.90;;;;;;;;;;4317498;33;20603;-79
2022/09/28 08:18:43;;;;;;;16.65;11.07;;;;;;;;;;4317715;33;20669;-79
2022/09/28 08:23:55;;;;;;;16.17;9.40;;;;;;;;;;4317793;33;20245;-79
2022/09/28 08:26:23;;;;;;;12.90;7.40;;;;;;;;;;4317383;33;20590;-81
2022/09/28 08:28:53;;;;;;;17.25;7.70;;;;;;;;;;4317363;33;20650;-83
2022/09/28 08:31:20;;;;;;;16.73;8.50;;;;;;;;;;4317323;33;20578;-80
2022/09/28 08:33:53;;;;;;;20.00;6.65;;;;;;;;;;4317167;33;20428;-79
2022/09/28 08:36:20;;;;;;;17.02;7.30;;;;;;;;;;4317298;33;20537;-80
2022/09/28 08:38:48;;;;;;;10.05;6.93;;;;;;;;;;4316648;33;20739;-80
2022/09/28 08:41:21;;;;;;;18.83;6.03;;;;;;;;;;4316846;33;20552;-81
2022/09/28 08:44:05;;;;;;;10.35;5.78;;;;;;;;;;4317313;33;20526;-80
2022/09/28 08:46:38;;;;;;;13.50;4.95;;;;;;;;;;4317212;33;20510;-81
2022/09/28 08:49:13;;;;;;;13.82;4.85;;;;;;;;;;4316829;33;20617;-80
2022/09/28 08:51:53;;;;;;;11.43;5.10;;;;;;;;;;4316975;33;20517;-82
2022/09/28 08:54:30;;;;;;;9.15;5.60;;;;;;;;;;4317162;33;20580;-81
2022/09/28 08:57:03;;;;;;;20.90;6.20;;;;;;;;;;4317055;33;20609;-81
2022/09/28 08:59:44;;;;;;;11.32;5.25;;;;;;;;;;4316709;33;20651;-81
2022/09/28 09:02:18;;;;;;;8.02;5.62;;;;;;;;;;4316830;33;20218;-81
2022/09/28 09:04:47;;;;;;;12.52;5.95;;;;;;;;;;4316787;33;20613;-81
2022/09/28 09:07:29;;;;;;;8.77;5.28;;;;;;;;;;4316972;33;20503;-81
2022/09/28 09:10:08;;;;;;;10.32;5.25;;;;;;;;;;4316817;33;20625;-81
2022/09/28 09:12:42;;;;;;;10.32;5.25;;;;;;;;;;4316633;33;20548;-81
2022/09/28 09:15:28;;;;;;;12.40;5.65;;;;;;;;;;4316664;33;20560;-81
2022/09/28 09:18:14;;;;;;;10.35;5.00;;;;;;;;;;4316481;33;20610;-81
2022/09/28 09:20:50;;;;;;;10.88;4.93;;;;;;;;;;4317151;33;20275;-80
2022/09/28 09:23:19;;;;;;;16.00;5.68;;;;;;;;;;4318806;33;20743;-81
2022/09/28 09:25:53;;;;;;;6.03;3.70;;;;;;;;;;4319518;33;20599;-80
2022/09/28 09:28:45;;;;;;;13.85;4.22;;;;;;;;;;4319794;33;20696;-82
2022/09/28 09:31:26;;;;;;;11.70;4.43;;;;;;;;;;4319360;33;20621;-82
2022/09/28 09:34:14;;;;;;;11.85;4.10;;;;;;;;;;4319287;33;20523;-81
2022/09/28 09:37:00;;;;;;;10.75;4.47;;;;;;;;;;4319954;33;20625;-81
2022/09/28 09:39:40;;;;;;;17.05;4.10;;;;;;;;;;4319555;33;20707;-80
2022/09/28 09:42:22;;;;;;;13.23;5.57;;;;;;;;;;4319992;33;20589;-80
2022/09/28 09:45:19;;;;;;;8.80;5.03;;;;;;;;;;4319278;33;20538;-81
2022/09/28 09:47:56;;;;;;;12.35;4.82;;;;;;;;;;4319293;33;20562;-81
2022/09/28 09:50:29;;;;;;;5.47;3.97;;;;;;;;;;4319228;33;20605;-80
2022/09/28 09:53:03;;;;;;;8.02;4.20;;;;;;;;;;4318752;33;20527;-81
2022/09/28 09:55:36;;;;;;;8.52;4.32;;;;;;;;;;4318867;33;20589;-80
2022/09/28 09:58:09;;;;;;;8.77;4.28;;;;;;;;;;4318640;33;21137;-80
2022/09/28 10:00:40;;;;;;;7.40;3.75;;;;;;;;;;4318469;33;20612;-81
2022/09/28 10:03:17;;;;;;;6.22;3.30;;;;;;;;;;4318914;33;20630;-81
2022/09/28 10:05:50;;;;;;;10.73;4.22;;;;;;;;;;4319546;33;20580;-81
2022/09/28 10:08:22;;;;;;;10.00;3.03;;;;;;;;;;4318731;33;20568;-81
2022/09/28 10:10:53;;;;;;;9.20;3.65;;;;;;;;;;4318494;33;20560;-81
2022/09/28 10:13:20;;;;;;;11.65;4.65;;;;;;;;;;4318877;33;20634;-83
2022/09/28 10:15:50;;;;;;;9.75;4.22;;;;;;;;;;4319267;33;20746;-81
2022/09/28 10:18:20;;;;;;;8.52;3.83;;;;;;;;;;4318617;33;20546;-82
2022/09/28 10:20:49;;;;;;;6.10;3.83;;;;;;;;;;4318762;33;20581;-81
2022/09/28 10:23:25;;;;;;;6.72;3.67;;;;;;;;;;4318264;33;20642;-83
2022/09/28 10:25:58;;;;;;;6.60;4.07;;;;;;;;;;4318576;33;20554;-81
2022/09/28 10:28:40;;;;;;;15.00;4.90;;;;;;;;;;4318703;33;20274;-82
2022/09/28 10:31:34;;;;;;;8.48;3.62;;;;;;;;;;4318608;33;20731;-81
2022/09/28 10:34:01;;;;;;;10.23;3.75;;;;;;;;;;4317880;33;20730;-81
2022/09/28 10:36:29;;;;;;;6.15;4.05;;;;;;;;;;4318455;33;20750;-82
2022/09/28 10:38:58;;;;;;;15.05;4.75;;;;;;;;;;4318692;33;20330;-80
2022/09/28 10:41:25;;;;;;;9.98;3.20;;;;;;;;;;4317827;33;20552;-80
2022/09/28 10:44:04;;;;;;;13.65;4.18;;;;;;;;;;4318652;33;20682;-83
2022/09/28 10:46:33;;;;;;;11.32;4.70;;;;;;;;;;4318876;33;20659;-80
2022/09/28 10:49:03;;;;;;;11.73;3.42;;;;;;;;;;4318233;33;20620;-82
2022/09/28 10:51:42;;;;;;;27.33;4.18;;;;;;;;;;4317925;33;20548;-82
2022/09/28 10:54:15;;;;;;;12.80;3.65;;;;;;;;;;4318161;33;20601;-81
2022/09/28 10:56:44;;;;;;;9.50;3.42;;;;;;;;;;4318440;33;20582;-81
2022/09/28 10:59:25;;;;;;;18.50;3.70;;;;;;;;;;4317963;33;20592;-81
2022/09/28 11:02:00;;;;;;;13.32;3.55;;;;;;;;;;4318684;33;20530;-81
2022/09/28 11:04:29;;;;;;;8.55;3.47;;;;;;;;;;4318048;33;20579;-80
2022/09/28 11:06:58;;;;;;;13.55;3.53;;;;;;;;;;4317993;33;20526;-81
2022/09/28 11:09:30;;;;;;;5.10;3.28;;;;;;;;;;4317757;33;20600;-81
2022/09/28 11:11:59;;;;;;;6.30;3.00;;;;;;;;;;4317953;33;20598;-81
2022/09/28 11:14:34;;;;;;;7.80;3.62;;;;;;;;;;4317586;33;20648;-80
2022/09/28 11:17:19;;;;;;;8.23;3.65;;;;;;;;;;4317836;33;20549;-79
2022/09/28 11:19:46;;;;;;;11.90;4.53;;;;;;;;;;4317963;33;20575;-81
2022/09/28 11:22:27;;;;;;;13.45;3.78;;;;;;;;;;4317665;33;20313;-81
2022/09/28 11:25:19;;;;;;;18.27;4.47;;;;;;;;;;4317683;33;20638;-83
2022/09/28 11:27:57;;;;;;;17.73;3.50;;;;;;;;;;4318281;33;20647;-83
2022/09/28 11:30:28;;;;;;;12.70;3.05;;;;;;;;;;4318526;33;20266;-83
2022/09/28 11:33:05;;;;;;;12.95;2.30;;;;;;;;;;4317996;33;20282;-83
2022/09/28 11:35:45;;;;;;;5.72;2.00;;;;;;;;;;4318399;33;20548;-83
2022/09/28 11:38:32;;;;;;;9.30;3.28;;;;;;;;;;4318541;33;20624;-82
2022/09/28 11:41:24;;;;;;;15.00;2.75;;;;;;;;;;4318029;33;20526;-83
2022/09/28 11:44:22;;;;;;;10.73;2.50;;;;;;;;;;4317933;33;20547;-83
2022/09/28 11:47:02;;;;;;;5.62;2.22;;;;;;;;;;4308141;33;20584;-82
2022/09/28 11:49:38;;;;;;;8.73;2.75;;;;;;;;;;4318097;33;20534;-82
2022/09/28 11:52:13;;;;;;;7.25;3.25;;;;;;;;;;4318776;33;20263;-84
2022/09/28 11:54:46;;;;;;;10.52;3.62;;;;;;;;;;4317696;33;20568;-82
2022/09/28 11:57:21;;;;;;;9.95;3.28;;;;;;;;;;4317879;33;20584;-83
2022/09/28 11:59:55;;;;;;;11.35;2.65;;;;;;;;;;4317869;33;20789;-82
2022/09/28 12:02:27;;;;;;;11.05;2.58;;;;;;;;;;4317708;33;20557;-83
2022/09/28 12:04:59;;;;;;;6.97;1.98;;;;;;;;;;4317514;33;20334;-83
2022/09/28 12:07:31;;;;;;;3.67;1.98;;;;;;;;;;4318184;33;20561;-82
2022/09/28 12:10:03;;;;;;;5.25;2.35;;;;;;;;;;4317402;33;20664;-83
2022/09/28 12:12:35;;;;;;;5.20;2.08;;;;;;;;;;4318494;33;20703;-83
2022/09/28 12:15:13;;;;;;;5.00;1.80;;;;;;;;;;4317851;33;20654;-83
2022/09/28 12:17:45;;;;;;;4.57;2.03;;;;;;;;;;4317640;33;20603;-84
2022/09/28 12:20:19;;;;;;;5.50;2.25;;;;;;;;;;4318066;33;20596;-84
2022/09/28 12:22:51;;;;;;;3.83;1.95;;;;;;;;;;4317525;33;20581;-82
2022/09/28 12:25:23;;;;;;;11.27;3.83;;;;;;;;;;4317787;33;20628;-82
2022/09/28 12:27:54;;;;;;;9.25;3.15;;;;;;;;;;4317405;33;20625;-83
2022/09/28 12:30:24;;;;;;;6.30;2.67;;;;;;;;;;4317670;33;20541;-82
2022/09/28 12:32:54;;;;;;;9.13;2.45;;;;;;;;;;4317356;33;20594;-82
2022/09/28 12:35:41;;;;;;;5.43;1.55;;;;;;;;;;4317419;33;20614;-82
2022/09/28 12:38:27;;;;;;;4.82;1.67;;;;;;;;;;4317964;33;20633;-82
2022/09/28 12:41:01;;;;;;;3.40;1.37;;;;;;;;;;4317552;33;20613;-82
2022/09/28 12:43:45;;;;;;;8.00;1.58;;;;;;;;;;4317628;33;20294;-82
2022/09/28 12:46:28;;;;;;;5.25;1.65;;;;;;;;;;4317414;33;20259;-82
2022/09/28 12:49:34;;;;;;;3.67;1.50;;;;;;;;;;4317330;33;20633;-82
2022/09/28 12:52:15;;;;;;;5.75;1.10;;;;;;;;;;4304694;33;20561;-82
2022/09/28 12:55:14;;;;;;;6.30;1.23;;;;;;;;;;4317268;33;20577;-82
2022/09/28 12:57:49;;;;;;;3.55;1.27;;;;;;;;;;4316679;33;20522;-82
2022/09/28 13:00:21;;;;;;;5.22;0.90;;;;;;;;;;4317326;33;20645;-82
2022/09/28 13:03:05;;;;;;;5.10;1.20;;;;;;;;;;4317437;33;20684;-82
2022/09/28 13:06:06;;;;;;;5.28;1.12;;;;;;;;;;4317074;33;20553;-83
2022/09/28 13:08:47;;;;;;;4.47;1.17;;;;;;;;;;4317541;33;20660;-82
2022/09/28 13:11:25;;;;;;;4.07;1.80;;;;;;;;;;4317245;33;20577;-83
2022/09/28 13:14:03;;;;;;;3.78;1.37;;;;;;;;;;4317306;33;20227;-83
2022/09/28 13:16:39;;;;;;;9.30;1.25;;;;;;;;;;4317291;33;20576;-83
2022/09/28 13:19:16;;;;;;;6.82;1.17;;;;;;;;;;4317378;33;20644;-83
2022/09/28 13:21:49;;;;;;;5.87;1.55;;;;;;;;;;4317481;33;20630;-81
2022/09/28 13:24:25;;;;;;;3.97;1.50;;;;;;;;;;4316985;33;20580;-81
2022/09/28 13:26:54;;;;;;;6.05;1.27;;;;;;;;;;4317930;33;20613;-83
2022/09/28 13:29:24;;;;;;;3.85;1.12;;;;;;;;;;4317036;33;20682;-82
2022/09/28 13:31:55;;;;;;;6.15;0.90;;;;;;;;;;4317249;33;20604;-83
2022/09/28 13:34:27;;;;;;;5.22;1.95;;;;;;;;;;4316885;33;20617;-84
2022/09/28 13:37:23;;;;;;;2.58;1.40;;;;;;;;;;4317095;33;20672;-80
2022/09/28 13:39:52;;;;;;;2.97;1.27;;;;;;;;;;4314006;33;20644;-81
2022/09/28 13:42:40;;;;;;;7.35;1.70;;;;;;;;;;4317511;33;20703;-81
2022/09/28 13:45:38;;;;;;;2.87;0.98;;;;;;;;;;4317032;33;20580;-84
2022/09/28 13:48:15;;;;;;;2.15;1.23;;;;;;;;;;4316427;33;20316;-84
2022/09/28 13:51:03;;;;;;;3.08;0.75;;;;;;;;;;4317241;33;20341;-85
2022/09/28 13:53:52;;;;;;;2.28;1.17;;;;;;;;;;4317107;33;20228;-85
2022/09/28 13:56:30;;;;;;;10.38;1.23;;;;;;;;;;4317674;33;20749;-83
2022/09/28 13:59:02;;;;;;;6.35;1.30;;;;;;;;;;4316694;33;20587;-83
2022/09/28 14:01:36;;;;;;;8.95;1.67;;;;;;;;;;4316890;33;20322;-83
2022/09/28 14:04:18;;;;;;;3.22;1.35;;;;;;;;;;4316353;33;20610;-84
2022/09/28 14:06:55;;;;;;;3.42;1.25;;;;;;;;;;4317036;33;20597;-84
2022/09/28 14:09:27;;;;;;;5.12;1.62;;;;;;;;;;4318682;33;20656;-83
2022/09/28 14:11:58;;;;;;;6.32;1.55;;;;;;;;;;4319931;33;20251;-84
2022/09/28 14:14:41;;;;;;;5.47;1.10;;;;;;;;;;4319493;33;20573;-84
2022/09/28 14:17:46;;;;;;;2.37;1.00;;;;;;;;;;4319956;33;20655;-83
2022/09/28 14:20:18;;;;;;;2.87;0.80;;;;;;;;;;4319595;33;20589;-83
2022/09/28 14:23:06;;;;;;;2.75;1.02;;;;;;;;;;4319285;33;20553;-84
2022/09/28 14:25:40;;;;;;;3.37;1.52;;;;;;;;;;4318896;33;20554;-82
2022/09/28 14:28:25;;;;;;;5.97;1.00;;;;;;;;;;4318891;33;20545;-80
2022/09/28 14:30:56;;;;;;;3.15;1.10;;;;;;;;;;4319311;33;20655;-82
2022/09/28 14:33:28;;;;;;;3.85;1.23;;;;;;;;;;4318787;33;20613;-85
2022/09/28 14:36:01;;;;;;;6.45;0.98;;;;;;;;;;4319659;33;20664;-88
2022/09/28 14:41:33;;;;;;;6.93;1.45;;;;;;;;;;4319141;33;20243;-84
2022/09/28 14:44:07;;;;;;;2.00;0.90;;;;;;;;;;4318877;33;20681;-84
2022/09/28 14:46:37;;;;;;;8.10;1.12;;;;;;;;;;4318828;33;20568;-81
2022/09/28 14:49:25;;;;;;;3.78;1.05;;;;;;;;;;4318504;33;20265;-82
2022/09/28 14:52:05;;;;;;;6.18;1.12;;;;;;;;;;4318850;33;20543;-81
2022/09/28 14:54:53;;;;;;;6.15;1.00;;;;;;;;;;4318474;33;20565;-81
2022/09/28 14:57:24;;;;;;;6.18;1.23;;;;;;;;;;4318558;33;20270;-81
2022/09/28 14:59:52;;;;;;;2.53;0.98;;;;;;;;;;4318554;33;20576;-81
2022/09/28 15:02:32;;;;;;;4.00;1.10;;;;;;;;;;4318538;33;20618;-81
2022/09/28 15:05:14;;;;;;;5.65;1.27;;;;;;;;;;4318318;33;20227;-81
2022/09/28 15:07:49;;;;;;;4.70;1.20;;;;;;;;;;4318345;33;20208;-82
2022/09/28 15:10:24;;;;;;;2.30;1.05;;;;;;;;;;4318263;33;20606;-80
2022/09/28 15:12:52;;;;;;;3.62;1.20;;;;;;;;;;4318433;33;20585;-82
2022/09/28 15:15:28;;;;;;;6.75;1.10;;;;;;;;;;4318405;33;20739;-82
2022/09/28 15:18:12;;;;;;;5.85;1.17;;;;;;;;;;4318345;33;20326;-87
2022/09/28 15:20:42;;;;;;;3.12;1.15;;;;;;;;;;4318180;33;20621;-81